Time;durP1;ratioP1;P1;durP2;ratioP2;P2;SDS_P1;SDS_P2;PMS_P1;PMS_P2;Temp;Humidity;BMP_temperature;BMP_pressure;BME280_temperature;BME280_humidity;BME280_pressure;Samples;Min_cycle;Max_cycle;Signal;HPM_P1;HPM_P2
2021/01/01 00:01:37;;;;;;;230.77;97.15;;;1.10;93.60;;;;;;5090327;28;20135;-45
2021/01/01 00:04:04;;;;;;;266.13;98.68;;;1.10;93.70;;;;;;5089434;28;20028;-47
2021/01/01 00:06:31;;;;;;;280.25;100.50;;;1.10;93.70;;;;;;5089703;28;20036;-46
2021/01/01 00:08:58;;;;;;;240.50;96.63;;;1.10;93.70;;;;;;5091438;28;20055;-47
2021/01/01 00:11:24;;;;;;;382.92;101.43;;;1.10;93.80;;;;;;5091234;28;20036;-46
2021/01/01 00:13:51;;;;;;;334.98;99.90;;;1.10;93.90;;;;;;5090175;28;20495;-49
2021/01/01 00:16:17;;;;;;;525.65;106.78;;;1.10;94.00;;;;;;5088325;28;20047;-45
2021/01/01 00:18:43;;;;;;;461.70;99.00;;;1.10;94.00;;;;;;5089514;28;20404;-49
2021/01/01 00:21:12;;;;;;;394.50;92.38;;;1.10;94.00;;;;;;5091481;28;20119;-47
2021/01/01 00:23:38;;;;;;;426.45;89.43;;;1.10;94.10;;;;;;5089769;28;20051;-50
2021/01/01 00:26:11;;;;;;;376.63;87.13;;;1.10;94.00;;;;;;5090619;28;20462;-45
2021/01/01 00:28:41;;;;;;;621.03;93.95;;;1.10;94.00;;;;;;5090412;28;20805;-46
2021/01/01 00:31:07;;;;;;;389.05;78.07;;;1.00;93.90;;;;;;5089451;28;20044;-46
2021/01/01 00:33:33;;;;;;;496.35;81.03;;;1.00;94.00;;;;;;5090788;28;20036;-46
2021/01/01 00:35:59;;;;;;;325.30;75.63;;;1.00;94.00;;;;;;5089436;28;20397;-49
2021/01/01 00:38:25;;;;;;;433.25;78.35;;;0.90;94.10;;;;;;5086396;28;20089;-47
2021/01/01 00:40:51;;;;;;;426.25;79.35;;;0.90;94.10;;;;;;5089829;28;20462;-48
2021/01/01 00:43:18;;;;;;;326.48;71.25;;;0.90;94.10;;;;;;5087208;28;20040;-49
2021/01/01 00:45:44;;;;;;;530.75;79.65;;;0.90;94.10;;;;;;5086606;28;20056;-47
2021/01/01 00:48:10;;;;;;;507.20;81.05;;;0.90;94.10;;;;;;5070213;28;20437;-44
2021/01/01 00:50:36;;;;;;;481.63;80.97;;;0.80;94.00;;;;;;5086733;28;20134;-47
2021/01/01 00:53:03;;;;;;;442.35;77.07;;;0.80;94.10;;;;;;5088193;28;20403;-48
2021/01/01 00:55:32;;;;;;;475.52;78.68;;;0.70;94.00;;;;;;5089450;28;20101;-47
2021/01/01 00:57:59;;;;;;;376.75;77.32;;;0.70;94.10;;;;;;5086616;28;20043;-45
2021/01/01 01:00:25;;;;;;;362.65;75.10;;;0.60;94.10;;;;;;5078878;28;20044;-47
2021/01/01 01:02:51;;;;;;;534.35;83.40;;;0.60;94.20;;;;;;5087580;28;20404;-49
2021/01/01 01:05:18;;;;;;;288.92;80.85;;;0.60;94.20;;;;;;5089112;28;20048;-47
2021/01/01 01:07:45;;;;;;;307.33;86.18;;;0.60;94.20;;;;;;5092400;28;20035;-47
2021/01/01 01:10:12;;;;;;;367.27;87.43;;;0.50;94.30;;;;;;5088663;28;20040;-47
2021/01/01 01:12:40;;;;;;;423.17;88.95;;;0.60;94.40;;;;;;5090519;28;20036;-49
2021/01/01 01:15:08;;;;;;;530.58;107.28;;;0.60;94.50;;;;;;5094186;28;20035;-47
2021/01/01 01:17:34;;;;;;;449.33;105.63;;;0.60;94.40;;;;;;5089866;28;20068;-47
2021/01/01 01:19:59;;;;;;;490.58;108.05;;;0.60;94.40;;;;;;5093603;28;20044;-46
2021/01/01 01:22:25;;;;;;;332.98;90.88;;;0.60;94.50;;;;;;5087974;28;20166;-48
2021/01/01 01:24:51;;;;;;;439.83;94.38;;;0.70;94.50;;;;;;5076928;28;20048;-49
2021/01/01 01:27:17;;;;;;;263.95;85.88;;;0.70;94.50;;;;;;5091723;28;20047;-47
2021/01/01 01:29:46;;;;;;;234.73;89.03;;;0.70;94.50;;;;;;5090086;28;20084;-47
2021/01/01 01:32:13;;;;;;;361.77;94.88;;;0.70;94.60;;;;;;5086904;28;20128;-47
2021/01/01 01:34:39;;;;;;;388.02;91.82;;;0.80;94.50;;;;;;5073548;28;20036;-48
2021/01/01 01:37:07;;;;;;;289.42;85.05;;;0.80;94.50;;;;;;5090228;28;20048;-50
2021/01/01 01:39:33;;;;;;;256.42;83.90;;;0.80;94.50;;;;;;5092830;28;20043;-47
2021/01/01 01:42:00;;;;;;;245.25;84.80;;;0.80;94.60;;;;;;5091319;28;20048;-48
2021/01/01 01:44:26;;;;;;;250.45;81.80;;;0.90;94.60;;;;;;5090068;28;20040;-48
2021/01/01 01:46:52;;;;;;;370.65;87.68;;;0.90;94.50;;;;;;5088497;28;20245;-47
2021/01/01 01:49:18;;;;;;;254.00;87.07;;;0.90;94.40;;;;;;5090080;28;20043;-48
2021/01/01 01:51:47;;;;;;;248.25;81.70;;;0.90;94.40;;;;;;5085514;28;20040;-49
2021/01/01 01:54:18;;;;;;;295.23;87.78;;;0.90;94.40;;;;;;5088472;28;20048;-49
2021/01/01 01:56:46;;;;;;;275.13;82.85;;;0.90;94.40;;;;;;5087676;28;20471;-46
2021/01/01 01:59:19;;;;;;;287.42;82.22;;;0.90;94.40;;;;;;5089025;28;20221;-50
2021/01/01 02:01:44;;;;;;;;;;;0.90;94.40;;;;;;5088887;28;20031;-48
2021/01/01 02:04:10;;;;;;;322.55;86.28;;;0.80;94.30;;;;;;5093721;28;19924;-47
2021/01/01 02:06:36;;;;;;;559.60;95.55;;;0.80;94.30;;;;;;5086387;28;20117;-49
2021/01/01 02:09:03;;;;;;;373.83;94.97;;;0.80;94.30;;;;;;5094596;28;20072;-47
2021/01/01 02:11:34;;;;;;;250.63;90.38;;;0.80;94.30;;;;;;5090732;28;20135;-48
2021/01/01 02:14:06;;;;;;;444.42;137.68;;;0.80;94.30;;;;;;5092523;28;20032;-47
2021/01/01 02:16:33;;;;;;;311.20;103.88;;;0.80;94.40;;;;;;5106859;28;20089;-50
2021/01/01 02:18:59;;;;;;;242.20;92.80;;;0.80;94.40;;;;;;5094247;28;20139;-47
2021/01/01 02:21:25;;;;;;;339.75;94.50;;;0.80;94.40;;;;;;5088174;28;20100;-47
2021/01/01 02:23:51;;;;;;;223.15;92.00;;;0.90;94.50;;;;;;5090804;28;20044;-50
2021/01/01 02:26:16;;;;;;;193.23;89.93;;;0.90;94.50;;;;;;5093727;28;20040;-46
2021/01/01 02:28:42;;;;;;;243.77;87.35;;;0.90;94.50;;;;;;5092771;28;20044;-47
2021/01/01 02:31:08;;;;;;;200.70;89.43;;;0.90;94.40;;;;;;5092867;28;20050;-47
2021/01/01 02:33:34;;;;;;;226.57;93.68;;;1.00;94.40;;;;;;5091713;28;20118;-46
2021/01/01 02:36:00;;;;;;;218.38;91.05;;;1.00;94.30;;;;;;5094322;28;20072;-48
2021/01/01 02:38:26;;;;;;;197.75;90.03;;;1.00;94.30;;;;;;5092376;28;20115;-47
2021/01/01 02:40:52;;;;;;;186.55;85.90;;;1.00;94.30;;;;;;5094512;28;20093;-47
2021/01/01 02:43:19;;;;;;;188.90;83.95;;;1.00;94.30;;;;;;5075559;28;20044;-48
2021/01/01 02:45:45;;;;;;;205.90;88.25;;;1.00;94.30;;;;;;5092058;28;20040;-47
2021/01/01 02:48:19;;;;;;;250.02;91.63;;;1.00;94.20;;;;;;5092856;28;20103;-46
2021/01/01 02:50:45;;;;;;;250.73;89.93;;;1.00;94.20;;;;;;5093156;28;20443;-47
2021/01/01 02:53:12;;;;;;;249.07;93.57;;;1.00;94.20;;;;;;5091943;28;20614;-47
2021/01/01 02:55:39;;;;;;;206.55;89.13;;;1.00;94.10;;;;;;5091961;28;20094;-46
2021/01/01 02:58:06;;;;;;;217.98;93.43;;;1.00;94.20;;;;;;5095912;28;20481;-47
2021/01/01 03:00:35;;;;;;;201.75;88.95;;;0.90;94.20;;;;;;5093295;28;20040;-48
2021/01/01 03:03:01;;;;;;;222.18;90.03;;;0.90;94.20;;;;;;5094489;28;20040;-47
2021/01/01 03:05:26;;;;;;;179.20;83.95;;;0.90;94.10;;;;;;5091827;28;20077;-45
2021/01/01 03:07:52;;;;;;;172.40;82.75;;;0.90;94.10;;;;;;5093292;28;20071;-49
2021/01/01 03:10:19;;;;;;;162.27;80.10;;;0.80;94.00;;;;;;5091410;28;20504;-46
2021/01/01 03:12:45;;;;;;;154.98;83.15;;;0.80;94.10;;;;;;5091599;28;20366;-49
2021/01/01 03:15:15;;;;;;;150.90;78.95;;;0.80;94.10;;;;;;5092753;28;20036;-46
2021/01/01 03:17:41;;;;;;;159.45;83.70;;;0.80;94.10;;;;;;5092324;28;20036;-47
2021/01/01 03:20:08;;;;;;;173.25;85.13;;;0.80;94.10;;;;;;5091118;28;20044;-50
2021/01/01 03:22:33;;;;;;;169.30;83.10;;;0.80;94.10;;;;;;5091765;28;20036;-45
2021/01/01 03:24:59;;;;;;;153.45;80.40;;;0.80;94.00;;;;;;5088975;28;20051;-47
2021/01/01 03:27:25;;;;;;;160.05;80.82;;;0.80;94.00;;;;;;5090522;28;20043;-47
2021/01/01 03:29:51;;;;;;;178.07;84.07;;;0.80;94.00;;;;;;5089802;28;20040;-50
2021/01/01 03:32:17;;;;;;;155.90;85.03;;;0.80;94.10;;;;;;5088592;28;20043;-48
2021/01/01 03:34:43;;;;;;;177.43;88.28;;;0.80;93.80;;;;;;5088065;28;20040;-48
2021/01/01 03:37:09;;;;;;;174.98;82.72;;;0.80;93.80;;;;;;5090409;28;20040;-47
2021/01/01 03:39:34;;;;;;;163.65;84.28;;;0.70;93.90;;;;;;5076315;28;20086;-49
2021/01/01 03:42:00;;;;;;;171.25;83.63;;;0.80;93.90;;;;;;5094466;28;20044;-47
2021/01/01 03:44:26;;;;;;;164.95;82.57;;;0.80;94.00;;;;;;5094028;28;20072;-47
2021/01/01 03:46:51;;;;;;;172.50;85.20;;;0.80;93.90;;;;;;5096833;28;20044;-46
2021/01/01 03:49:18;;;;;;;162.30;84.30;;;0.80;93.90;;;;;;5095247;28;20048;-47
2021/01/01 03:51:45;;;;;;;182.80;87.38;;;0.80;93.90;;;;;;5097097;28;20036;-48
2021/01/01 03:54:11;;;;;;;185.93;88.00;;;0.80;93.80;;;;;;5092457;28;20047;-46
2021/01/01 03:56:37;;;;;;;186.38;93.25;;;0.80;93.90;;;;;;5092693;28;20460;-46
2021/01/01 03:59:03;;;;;;;182.82;94.40;;;0.80;93.90;;;;;;5091801;28;20044;-45
2021/01/01 04:01:28;;;;;;;187.23;95.00;;;0.80;93.90;;;;;;5093634;28;20043;-46
2021/01/01 04:03:54;;;;;;;189.68;94.30;;;0.80;94.00;;;;;;5092674;28;20036;-46
2021/01/01 04:06:20;;;;;;;187.40;96.07;;;0.90;93.90;;;;;;5093999;28;20044;-48
2021/01/01 04:08:45;;;;;;;201.35;95.45;;;0.90;93.90;;;;;;5095011;28;20463;-48
2021/01/01 04:11:11;;;;;;;223.80;95.25;;;0.90;93.90;;;;;;5094682;28;20044;-46
2021/01/01 04:13:37;;;;;;;228.40;91.50;;;0.90;94.00;;;;;;5095862;28;20093;-48
2021/01/01 04:16:03;;;;;;;334.52;98.47;;;0.80;93.80;;;;;;5097480;28;20064;-47
2021/01/01 04:18:28;;;;;;;199.38;87.68;;;0.80;93.90;;;;;;5097904;28;20075;-46
2021/01/01 04:20:55;;;;;;;246.98;93.75;;;0.80;93.80;;;;;;5095957;28;21310;-48
2021/01/01 04:23:22;;;;;;;186.95;89.45;;;0.80;93.90;;;;;;5092452;28;20047;-45
2021/01/01 04:25:48;;;;;;;176.77;88.70;;;0.70;94.00;;;;;;5091775;28;20067;-51
2021/01/01 04:28:13;;;;;;;173.88;88.18;;;0.70;93.90;;;;;;5092698;28;20083;-49
2021/01/01 04:30:41;;;;;;;183.00;90.30;;;0.80;93.90;;;;;;5092483;28;20050;-51
2021/01/01 04:33:06;;;;;;;164.80;87.50;;;0.80;93.80;;;;;;5088151;28;20454;-50
2021/01/01 04:35:32;;;;;;;176.27;89.35;;;0.70;93.70;;;;;;5093299;28;20051;-46
2021/01/01 04:37:58;;;;;;;170.27;88.10;;;0.70;93.80;;;;;;5093912;28;20036;-48
2021/01/01 04:40:25;;;;;;;170.13;88.20;;;0.70;93.80;;;;;;5096506;28;20154;-48
2021/01/01 04:42:50;;;;;;;176.88;89.65;;;0.80;93.90;;;;;;5095509;28;20553;-46
2021/01/01 04:45:16;;;;;;;175.90;87.63;;;0.90;93.90;;;;;;5097137;28;20040;-45
2021/01/01 04:47:45;;;;;;;174.63;91.03;;;0.90;93.80;;;;;;5093618;28;20051;-47
2021/01/01 04:50:12;;;;;;;167.70;88.97;;;0.90;93.80;;;;;;5096609;28;20397;-46
2021/01/01 04:52:39;;;;;;;163.73;89.18;;;1.00;93.70;;;;;;5096706;28;20459;-46
2021/01/01 04:55:05;;;;;;;176.82;89.75;;;1.00;93.70;;;;;;5095702;28;20036;-46
2021/01/01 04:57:32;;;;;;;171.77;90.63;;;1.00;93.60;;;;;;5096175;28;20044;-46
2021/01/01 04:59:57;;;;;;;181.93;93.20;;;1.00;93.80;;;;;;5094082;28;20089;-47
2021/01/01 05:02:23;;;;;;;169.70;87.15;;;1.10;93.80;;;;;;5093690;28;20099;-48
2021/01/01 05:04:49;;;;;;;181.23;88.05;;;1.00;93.80;;;;;;5097315;28;20040;-48
2021/01/01 05:07:19;;;;;;;181.00;87.25;;;1.10;93.80;;;;;;5091562;28;20055;-47
2021/01/01 05:09:46;;;;;;;180.02;89.40;;;1.10;93.90;;;;;;5092898;28;20048;-48
2021/01/01 05:12:12;;;;;;;184.55;93.47;;;1.10;93.90;;;;;;5090316;28;20032;-48
2021/01/01 05:14:39;;;;;;;186.38;92.57;;;1.10;93.90;;;;;;5091219;28;20068;-48
2021/01/01 05:17:06;;;;;;;173.95;89.20;;;1.20;93.90;;;;;;5087906;28;20071;-47
2021/01/01 05:19:42;;;;;;;179.75;90.07;;;1.20;93.90;;;;;;5092515;28;20078;-48
2021/01/01 05:22:10;;;;;;;179.23;89.00;;;1.30;94.00;;;;;;5090275;28;20171;-49
2021/01/01 05:24:38;;;;;;;177.35;88.18;;;1.30;93.90;;;;;;5093384;28;20136;-48
2021/01/01 05:27:10;;;;;;;175.40;88.38;;;1.30;93.90;;;;;;5090481;28;20381;-50
2021/01/01 05:29:42;;;;;;;179.68;87.95;;;1.30;93.90;;;;;;5090973;28;20050;-49
2021/01/01 05:32:10;;;;;;;177.07;87.07;;;1.40;93.90;;;;;;5090455;28;20044;-48
2021/01/01 05:34:45;;;;;;;169.73;87.53;;;1.40;94.00;;;;;;5092885;28;20048;-50
2021/01/01 05:37:11;;;;;;;176.25;86.22;;;1.40;94.00;;;;;;5072176;28;20496;-48
2021/01/01 05:39:37;;;;;;;185.48;89.45;;;1.40;94.20;;;;;;5095782;28;20052;-48
2021/01/01 05:42:03;;;;;;;170.55;85.22;;;1.50;94.00;;;;;;5094245;28;20059;-47
2021/01/01 05:44:32;;;;;;;166.50;82.70;;;1.50;94.00;;;;;;5093260;28;20062;-48
2021/01/01 05:47:07;;;;;;;179.48;86.72;;;1.50;93.90;;;;;;5096682;28;20396;-48
2021/01/01 05:49:36;;;;;;;171.85;84.93;;;1.60;94.00;;;;;;5093751;28;20408;-46
2021/01/01 05:52:04;;;;;;;165.82;81.75;;;1.60;93.90;;;;;;5092709;28;20028;-45
2021/01/01 05:54:31;;;;;;;162.30;83.57;;;1.60;93.90;;;;;;5092263;28;20097;-46
2021/01/01 05:56:57;;;;;;;167.15;84.18;;;1.70;93.90;;;;;;5090660;28;20040;-48
2021/01/01 05:59:26;;;;;;;171.90;83.82;;;1.70;93.90;;;;;;5092711;28;20044;-48
2021/01/01 06:01:58;;;;;;;174.93;86.00;;;1.70;93.80;;;;;;5092159;28;20039;-48
2021/01/01 06:04:24;;;;;;;176.48;85.88;;;1.70;93.80;;;;;;5091359;28;20044;-47
2021/01/01 06:06:54;;;;;;;184.85;86.20;;;1.80;93.90;;;;;;5090759;28;20036;-48
2021/01/01 06:09:21;;;;;;;184.18;90.28;;;1.80;93.80;;;;;;5093015;28;20492;-47
2021/01/01 06:12:08;;;;;;;183.75;85.07;;;1.80;93.80;;;;;;5088765;28;20119;-48
2021/01/01 06:14:35;;;;;;;176.27;85.93;;;1.80;94.10;;;;;;5088974;28;20028;-48
2021/01/01 06:17:16;;;;;;;176.43;86.18;;;1.80;93.80;;;;;;5082599;28;21731;-49
2021/01/01 06:19:53;;;;;;;168.65;84.50;;;1.80;93.80;;;;;;5091040;28;20044;-46
2021/01/01 06:22:28;;;;;;;179.73;86.97;;;1.80;93.80;;;;;;5087323;28;20036;-47
2021/01/01 06:24:56;;;;;;;178.18;86.18;;;1.90;93.80;;;;;;5093262;28;20508;-46
2021/01/01 06:27:27;;;;;;;179.73;88.07;;;1.90;93.80;;;;;;5093040;28;20051;-46
2021/01/01 06:30:03;;;;;;;176.80;87.20;;;1.90;93.90;;;;;;5093034;28;20036;-46
2021/01/01 06:32:32;;;;;;;184.35;86.57;;;1.80;93.90;;;;;;5092341;28;20058;-48
2021/01/01 06:35:30;;;;;;;173.25;87.38;;;1.90;94.20;;;;;;5091391;28;20061;-46
2021/01/01 06:37:58;;;;;;;178.20;86.57;;;1.90;94.00;;;;;;5082905;28;20040;-47
2021/01/01 06:40:34;;;;;;;174.82;83.68;;;1.90;94.00;;;;;;5092835;28;20416;-47
2021/01/01 06:43:01;;;;;;;180.75;86.03;;;1.90;94.00;;;;;;5092756;28;20071;-48
2021/01/01 06:45:35;;;;;;;177.80;86.25;;;2.00;93.90;;;;;;5093109;28;20040;-49
2021/01/01 06:48:07;;;;;;;171.85;84.20;;;2.00;93.90;;;;;;5088280;28;20123;-47
2021/01/01 06:50:35;;;;;;;183.07;84.25;;;2.00;93.90;;;;;;5092424;28;20085;-46
2021/01/01 06:53:05;;;;;;;176.57;85.40;;;2.10;94.00;;;;;;5092066;28;20040;-46
2021/01/01 06:55:51;;;;;;;166.18;82.60;;;2.10;93.90;;;;;;5084713;28;20054;-47
2021/01/01 06:58:26;;;;;;;176.38;86.95;;;2.10;94.00;;;;;;5086290;28;20397;-47
2021/01/01 07:00:54;;;;;;;182.70;86.05;;;2.10;93.90;;;;;;5086734;28;20040;-47
2021/01/01 07:03:25;;;;;;;177.90;87.75;;;2.10;93.90;;;;;;5088221;28;20082;-46
2021/01/01 07:05:52;;;;;;;176.17;85.00;;;2.10;93.90;;;;;;5088946;28;20036;-50
2021/01/01 07:08:39;;;;;;;179.68;87.90;;;2.10;93.90;;;;;;5090212;28;20067;-48
2021/01/01 07:11:21;;;;;;;176.43;86.53;;;2.10;93.90;;;;;;5088182;28;20048;-47
2021/01/01 07:13:48;;;;;;;180.63;87.65;;;2.10;93.90;;;;;;5088263;28;20036;-48
2021/01/01 07:16:18;;;;;;;160.73;82.53;;;2.10;93.90;;;;;;5089950;28;20046;-48
2021/01/01 07:18:44;;;;;;;171.68;84.30;;;2.10;93.90;;;;;;5091800;28;20051;-47
2021/01/01 07:21:13;;;;;;;171.98;84.70;;;2.10;93.90;;;;;;5091361;28;20408;-48
2021/01/01 07:23:39;;;;;;;184.48;86.45;;;2.10;94.20;;;;;;5093422;28;20085;-48
2021/01/01 07:26:05;;;;;;;168.18;84.88;;;2.10;94.00;;;;;;5093019;28;20028;-48
2021/01/01 07:28:32;;;;;;;173.02;83.65;;;2.10;93.90;;;;;;5090876;28;20097;-48
2021/01/01 07:30:58;;;;;;;167.30;83.35;;;2.10;94.00;;;;;;5094543;28;20488;-48
2021/01/01 07:33:31;;;;;;;164.63;83.03;;;2.10;94.00;;;;;;5088329;28;20478;-46
2021/01/01 07:35:59;;;;;;;169.70;84.03;;;2.10;94.00;;;;;;5094127;28;20056;-48
2021/01/01 07:38:26;;;;;;;172.32;86.03;;;2.10;94.00;;;;;;5093126;28;20036;-46
2021/01/01 07:40:53;;;;;;;180.70;88.70;;;2.10;94.10;;;;;;5093054;28;20048;-48
2021/01/01 07:43:19;;;;;;;174.57;83.78;;;2.10;94.00;;;;;;5092462;28;20087;-45
2021/01/01 07:45:45;;;;;;;176.27;86.25;;;2.10;94.00;;;;;;5093969;28;20040;-48
2021/01/01 07:48:11;;;;;;;170.73;84.55;;;2.10;93.90;;;;;;5091660;28;20043;-46
2021/01/01 07:50:39;;;;;;;178.20;85.10;;;2.10;94.00;;;;;;5093221;28;20044;-48
2021/01/01 07:53:06;;;;;;;170.10;85.45;;;2.10;94.00;;;;;;5091938;28;20089;-47
2021/01/01 07:55:33;;;;;;;172.80;84.00;;;2.10;93.90;;;;;;5092420;28;20402;-46
2021/01/01 07:58:07;;;;;;;163.38;82.78;;;2.10;93.90;;;;;;5093516;28;20052;-47
2021/01/01 08:00:35;;;;;;;168.10;84.65;;;2.10;94.00;;;;;;5093348;28;20067;-46
2021/01/01 08:03:05;;;;;;;175.57;85.07;;;2.20;93.90;;;;;;5092643;28;20458;-47
2021/01/01 08:05:31;;;;;;;177.02;84.57;;;2.20;94.00;;;;;;5094409;28;20042;-45
2021/01/01 08:08:22;;;;;;;176.93;84.68;;;2.20;94.00;;;;;;5089544;28;20066;-48
2021/01/01 08:10:49;;;;;;;178.65;82.53;;;2.20;94.00;;;;;;5090583;28;20048;-46
2021/01/01 08:13:23;;;;;;;175.50;84.72;;;2.20;93.90;;;;;;5086701;28;20047;-46
2021/01/01 08:15:50;;;;;;;173.70;83.03;;;2.20;93.90;;;;;;5091588;28;20763;-47
2021/01/01 08:18:15;;;;;;;160.93;82.05;;;2.20;93.90;;;;;;5089980;28;20059;-48
2021/01/01 08:20:46;;;;;;;174.10;84.00;;;2.20;93.90;;;;;;5092664;28;20126;-48
2021/01/01 08:23:19;;;;;;;167.35;82.90;;;2.20;94.00;;;;;;5091896;28;20105;-46
2021/01/01 08:25:45;;;;;;;;;;;2.20;94.00;;;;;;5089024;28;20032;-46
2021/01/01 08:28:14;;;;;;;161.30;78.55;;;2.20;94.00;;;;;;5091708;28;19959;-47
2021/01/01 08:30:40;;;;;;;164.18;81.47;;;2.30;94.00;;;;;;5088075;28;20048;-47
2021/01/01 08:33:08;;;;;;;162.20;79.60;;;2.30;94.00;;;;;;5091274;28;20069;-48
2021/01/01 08:35:34;;;;;;;166.27;81.88;;;2.20;94.00;;;;;;5091008;28;20124;-46
2021/01/01 08:38:13;;;;;;;172.30;82.72;;;2.30;94.00;;;;;;5090721;28;20051;-47
2021/01/01 08:40:43;;;;;;;164.23;82.20;;;2.30;94.00;;;;;;5091869;28;20115;-47
2021/01/01 08:43:08;;;;;;;165.52;80.88;;;2.40;93.90;;;;;;5088942;28;20128;-47
2021/01/01 08:45:35;;;;;;;168.02;81.57;;;2.40;93.90;;;;;;5092713;28;20111;-47
2021/01/01 08:48:11;;;;;;;168.63;79.88;;;2.40;93.80;;;;;;5090314;28;20557;-46
2021/01/01 08:50:46;;;;;;;165.02;78.70;;;2.40;93.80;;;;;;5091538;28;20048;-46
2021/01/01 08:53:13;;;;;;;159.60;79.40;;;2.40;93.90;;;;;;5089674;28;20508;-47
2021/01/01 08:55:38;;;;;;;159.48;79.78;;;2.40;94.00;;;;;;5097265;28;20044;-47
2021/01/01 08:58:15;;;;;;;155.68;75.53;;;2.40;94.00;;;;;;5090217;28;20036;-48
2021/01/01 09:00:44;;;;;;;164.70;80.53;;;2.50;94.10;;;;;;5090341;28;20118;-47
2021/01/01 09:03:12;;;;;;;164.30;81.10;;;2.50;94.00;;;;;;5086209;28;20127;-49
2021/01/01 09:05:38;;;;;;;156.95;76.65;;;2.50;93.90;;;;;;5091270;28;20036;-46
2021/01/01 09:08:11;;;;;;;156.95;76.20;;;2.50;93.90;;;;;;5092696;28;20461;-46
2021/01/01 09:10:41;;;;;;;160.32;78.75;;;2.50;93.90;;;;;;5084982;28;20512;-45
2021/01/01 09:13:16;;;;;;;148.02;77.10;;;2.60;93.90;;;;;;5086612;28;20048;-48
2021/01/01 09:15:43;;;;;;;154.93;77.00;;;2.60;94.00;;;;;;5095094;28;20052;-46
2021/01/01 09:18:09;;;;;;;166.05;77.53;;;2.60;94.00;;;;;;5091108;28;20496;-46
2021/01/01 09:20:40;;;;;;;172.07;79.82;;;2.70;93.90;;;;;;5090774;28;20106;-46
2021/01/01 09:23:13;;;;;;;159.93;76.97;;;2.70;93.90;;;;;;5093042;28;20039;-49
2021/01/01 09:25:40;;;;;;;156.55;77.35;;;2.70;93.90;;;;;;5091369;28;20032;-44
2021/01/01 09:28:10;;;;;;;164.88;77.65;;;2.70;94.00;;;;;;5087581;28;20036;-46
2021/01/01 09:30:36;;;;;;;163.95;77.75;;;2.80;93.90;;;;;;5091639;28;20412;-46
2021/01/01 09:33:06;;;;;;;163.93;80.03;;;2.80;94.00;;;;;;5072422;28;20038;-45
2021/01/01 09:35:32;;;;;;;163.15;76.03;;;2.90;93.90;;;;;;5089259;28;20400;-47
2021/01/01 09:38:03;;;;;;;161.50;77.03;;;2.90;94.00;;;;;;5092697;28;20047;-47
2021/01/01 09:40:30;;;;;;;153.75;75.32;;;2.90;94.00;;;;;;5089603;28;20048;-46
2021/01/01 09:43:00;;;;;;;161.77;77.40;;;3.00;93.90;;;;;;5089351;28;20047;-49
2021/01/01 09:45:25;;;;;;;158.68;76.20;;;3.00;93.90;;;;;;5093468;28;20036;-48
2021/01/01 09:47:52;;;;;;;163.95;78.90;;;3.00;94.00;;;;;;5087243;28;20055;-46
2021/01/01 09:50:18;;;;;;;157.35;74.82;;;3.10;94.00;;;;;;5086958;28;20047;-46
2021/01/01 09:52:44;;;;;;;156.38;75.68;;;3.10;94.10;;;;;;5088262;28;20044;-46
2021/01/01 09:55:10;;;;;;;155.57;75.88;;;3.20;94.10;;;;;;5087674;28;20454;-47
2021/01/01 09:57:40;;;;;;;156.18;74.32;;;3.20;94.10;;;;;;5088582;28;20114;-47
2021/01/01 10:00:14;;;;;;;151.02;73.68;;;3.20;94.20;;;;;;5087524;28;20032;-46
2021/01/01 10:02:41;;;;;;;159.52;73.80;;;3.30;93.90;;;;;;5086914;28;20040;-47
2021/01/01 10:05:08;;;;;;;159.98;75.82;;;3.30;93.90;;;;;;5087300;28;20541;-46
2021/01/01 10:07:34;;;;;;;152.48;76.53;;;3.40;94.00;;;;;;5086977;28;20044;-48
2021/01/01 10:10:01;;;;;;;160.95;76.65;;;3.40;94.00;;;;;;5088767;28;20040;-48
2021/01/01 10:12:27;;;;;;;152.30;73.30;;;3.40;93.90;;;;;;5088083;28;20119;-48
2021/01/01 10:14:58;;;;;;;154.25;76.53;;;3.50;93.90;;;;;;5088526;28;20040;-47
2021/01/01 10:17:24;;;;;;;147.10;74.60;;;3.50;93.80;;;;;;5089734;28;20040;-47
2021/01/01 10:19:50;;;;;;;148.95;73.88;;;3.50;93.80;;;;;;5088470;28;20048;-48
2021/01/01 10:22:17;;;;;;;151.38;70.10;;;3.60;93.90;;;;;;5089353;28;20123;-46
2021/01/01 10:24:44;;;;;;;143.57;71.88;;;3.60;93.90;;;;;;5089626;28;20040;-47
2021/01/01 10:27:10;;;;;;;142.90;71.57;;;3.60;93.90;;;;;;5089293;28;20043;-47
2021/01/01 10:29:36;;;;;;;143.70;70.00;;;3.70;93.90;;;;;;5090140;28;20139;-48
2021/01/01 10:32:09;;;;;;;144.98;69.25;;;3.70;93.90;;;;;;5089107;28;21542;-47
2021/01/01 10:34:35;;;;;;;136.20;69.13;;;3.70;93.90;;;;;;5089092;28;20032;-46
2021/01/01 10:37:01;;;;;;;138.88;68.22;;;3.80;93.90;;;;;;5089347;28;20035;-47
2021/01/01 10:39:27;;;;;;;130.82;64.40;;;3.90;93.90;;;;;;5089717;28;20036;-48
2021/01/01 10:41:53;;;;;;;131.50;64.82;;;3.90;93.80;;;;;;5088612;28;20404;-49
2021/01/01 10:44:19;;;;;;;133.13;66.10;;;3.90;93.80;;;;;;5089370;28;20089;-46
2021/01/01 10:46:54;;;;;;;129.60;61.63;;;4.00;93.80;;;;;;5088190;28;20036;-46
2021/01/01 10:49:23;;;;;;;127.85;62.33;;;4.00;93.70;;;;;;5087452;28;20637;-45
2021/01/01 10:51:48;;;;;;;126.43;63.40;;;4.10;93.80;;;;;;5087355;28;20059;-46
2021/01/01 10:54:14;;;;;;;122.95;60.70;;;4.10;93.80;;;;;;5087150;28;20040;-48
2021/01/01 10:56:40;;;;;;;124.15;59.78;;;4.20;93.80;;;;;;5090337;28;20039;-46
2021/01/01 10:59:06;;;;;;;124.47;59.60;;;4.20;93.80;;;;;;5087746;28;20044;-45
2021/01/01 11:01:32;;;;;;;110.10;55.80;;;4.30;93.80;;;;;;5089623;28;20554;-48
2021/01/01 11:03:57;;;;;;;117.35;56.03;;;4.30;93.60;;;;;;5089863;28;20051;-49
2021/01/01 11:06:23;;;;;;;109.03;54.65;;;4.30;93.60;;;;;;5090032;28;20052;-48
2021/01/01 11:08:49;;;;;;;109.07;54.92;;;4.30;93.60;;;;;;5088378;28;20044;-47
2021/01/01 11:11:21;;;;;;;108.28;53.67;;;4.40;93.80;;;;;;5089111;28;20454;-51
2021/01/01 11:13:57;;;;;;;101.17;52.57;;;4.40;93.70;;;;;;5088486;28;20036;-49
2021/01/01 12:22:48;;;;;;;88.57;45.33;;;5.10;93.30;;;;;;5094522;28;20032;-50
2021/01/01 12:25:17;;;;;;;106.10;48.63;;;5.20;93.30;;;;;;5093440;28;20503;-49
2021/01/01 12:27:46;;;;;;;85.30;44.15;;;5.20;93.40;;;;;;5094648;28;20032;-48
2021/01/01 12:30:12;;;;;;;81.15;43.40;;;5.20;93.40;;;;;;5094384;28;20428;-48
2021/01/01 12:32:50;;;;;;;83.65;43.15;;;5.20;93.40;;;;;;5094349;28;20043;-46
2021/01/01 12:35:16;;;;;;;78.65;41.22;;;5.30;93.30;;;;;;5093336;28;20051;-48
2021/01/01 12:37:42;;;;;;;72.20;39.45;;;5.40;93.30;;;;;;5094003;28;20082;-48
2021/01/01 12:40:09;;;;;;;69.75;39.10;;;5.40;93.20;;;;;;5092336;28;20056;-48
2021/01/01 12:42:35;;;;;;;73.38;39.50;;;5.50;93.20;;;;;;5094328;28;20029;-47
2021/01/01 12:45:02;;;;;;;74.05;38.80;;;5.50;93.10;;;;;;5092611;28;20032;-47
2021/01/01 12:47:30;;;;;;;74.30;39.72;;;5.50;93.20;;;;;;5092407;28;20040;-48
2021/01/01 12:49:56;;;;;;;76.97;40.08;;;5.50;93.20;;;;;;5092242;28;20039;-49
2021/01/01 12:52:22;;;;;;;70.97;38.65;;;5.50;93.20;;;;;;5094315;28;20093;-46
2021/01/01 12:54:49;;;;;;;68.53;38.72;;;5.50;93.10;;;;;;5092209;28;20036;-46
2021/01/01 12:57:15;;;;;;;71.22;39.10;;;5.60;93.10;;;;;;5091732;28;20417;-48
2021/01/01 12:59:41;;;;;;;76.88;41.13;;;5.60;93.10;;;;;;5095743;28;20116;-49
2021/01/01 13:02:07;;;;;;;75.72;41.13;;;5.60;93.00;;;;;;5090612;28;20478;-48
2021/01/01 13:04:34;;;;;;;75.75;40.75;;;5.60;93.00;;;;;;5086804;28;20036;-50
2021/01/01 13:06:59;;;;;;;71.13;38.70;;;5.60;93.00;;;;;;5090082;28;20574;-49
2021/01/01 13:09:26;;;;;;;74.40;40.08;;;5.60;93.10;;;;;;5092143;28;20047;-49
2021/01/01 13:11:52;;;;;;;86.15;42.10;;;5.50;93.00;;;;;;5089473;28;20504;-47
2021/01/01 13:14:18;;;;;;;76.30;42.10;;;5.50;93.10;;;;;;5091210;28;20060;-46
2021/01/01 13:16:45;;;;;;;82.20;42.95;;;5.50;93.10;;;;;;5093863;28;20496;-49
2021/01/01 13:19:11;;;;;;;73.65;41.90;;;5.60;93.20;;;;;;5091210;28;20516;-47
2021/01/01 13:21:39;;;;;;;75.65;41.65;;;5.60;93.20;;;;;;5088999;28;20036;-49
2021/01/01 13:24:06;;;;;;;74.65;41.05;;;5.60;93.10;;;;;;5089970;28;20544;-47
2021/01/01 13:26:32;;;;;;;70.15;39.60;;;5.60;93.20;;;;;;5090180;28;20438;-47
2021/01/01 13:28:59;;;;;;;96.97;53.90;;;5.60;93.10;;;;;;5088815;28;20510;-47
2021/01/01 13:31:43;;;;;;;90.95;47.08;;;5.60;93.10;;;;;;5091907;28;20555;-48
2021/01/01 13:34:10;;;;;;;73.40;39.60;;;5.70;93.10;;;;;;5105973;27;20116;-48
2021/01/01 13:36:37;;;;;;;181.23;107.13;;;5.70;93.20;;;;;;5091266;28;20040;-49
2021/01/01 13:39:04;;;;;;;83.90;43.67;;;5.70;93.20;;;;;;5091763;28;20028;-48